Terminal Aerodrome Forecast
Issued by NWS Northern Indiana

Home | Current Version | Previous Version | Graphics & Text | Print | Product List | Glossary On
Versions: 1 2 3 4 5 6 7 8 9 10 11 12 13 14 15 16 17 18
000
FTUS43 KIWX 121700
TAFFWA
TAF
KFWA 121736Z 1218/1318 03007KT P6SM OVC025
     FM130900 32006KT P6SM VCSH OVC030
      TEMPO 1309/1312 4SM -RA BR OVC025=

USA.gov is the U.S. government's official web portal to all federal, state and local government web resources and services.